Time;durP1;ratioP1;P1;durP2;ratioP2;P2;SDS_P1;SDS_P2;PMS_P1;PMS_P2;Temp;Humidity;BMP_temperature;BMP_pressure;BME280_temperature;BME280_humidity;BME280_pressure;Samples;Min_cycle;Max_cycle;Signal;HPM_P1;HPM_P2
2021/12/11 00:02:32;;;;;;;14.98;6.95;;;-3.90;99.90;;;;;;5057418;28;20032;-70
2021/12/11 00:05:01;;;;;;;13.75;6.32;;;-3.90;99.90;;;;;;5057553;28;20053;-71
2021/12/11 00:07:30;;;;;;;15.27;6.80;;;-4.00;99.90;;;;;;5057520;28;20109;-71
2021/12/11 00:10:16;;;;;;;14.18;6.75;;;-4.00;99.90;;;;;;5057974;28;20024;-70
2021/12/11 00:12:53;;;;;;;14.27;6.20;;;-4.00;99.90;;;;;;5056532;28;20421;-71
2021/12/11 00:15:29;;;;;;;15.18;6.55;;;-4.00;99.90;;;;;;5057059;28;20113;-71
2021/12/11 00:18:10;;;;;;;12.85;5.97;;;-4.00;99.90;;;;;;5056391;28;20025;-71
2021/12/11 00:20:45;;;;;;;10.25;5.28;;;-4.00;99.90;;;;;;5056843;28;20029;-71
2021/12/11 00:23:22;;;;;;;12.23;5.97;;;-4.00;99.90;;;;;;5056118;28;20025;-71
2021/12/11 00:25:50;;;;;;;13.55;6.15;;;-4.00;99.90;;;;;;5056401;28;20464;-71
2021/12/11 00:28:17;;;;;;;16.38;6.68;;;-4.00;99.90;;;;;;5056406;28;20397;-71
2021/12/11 00:30:47;;;;;;;10.63;5.85;;;-4.00;99.90;;;;;;5056259;28;20024;-71
2021/12/11 00:33:23;;;;;;;16.92;7.18;;;-4.00;99.90;;;;;;5057020;28;20302;-71
2021/12/11 00:35:53;;;;;;;;;;;-4.00;99.90;;;;;;5057820;28;20024;-71
2021/12/11 00:38:34;;;;;;;13.98;5.22;;;-4.10;99.90;;;;;;5057048;28;20228;-70
2021/12/11 00:41:11;;;;;;;12.50;5.45;;;-4.10;99.90;;;;;;5057315;28;20013;-70
2021/12/11 00:43:40;;;;;;;10.68;4.88;;;-4.10;99.90;;;;;;5056963;28;20455;-70
2021/12/11 00:46:23;;;;;;;13.60;6.13;;;-4.10;99.90;;;;;;5056993;28;20020;-70
2021/12/11 00:48:51;;;;;;;17.05;5.53;;;-4.10;99.90;;;;;;5057180;28;20022;-70
2021/12/11 00:51:22;;;;;;;12.05;5.65;;;-4.10;99.90;;;;;;5056971;28;20017;-70
2021/12/11 00:53:58;;;;;;;16.10;5.40;;;-4.10;99.90;;;;;;5056624;28;20028;-70
2021/12/11 00:56:39;;;;;;;13.27;5.38;;;-4.10;99.90;;;;;;5056813;28;20025;-70
2021/12/11 00:59:13;;;;;;;13.10;6.38;;;-4.10;99.90;;;;;;5059880;28;20109;-70
2021/12/11 01:01:51;;;;;;;10.25;5.95;;;-4.10;99.90;;;;;;5060328;28;20021;-70
2021/12/11 01:04:25;;;;;;;12.63;5.53;;;-4.10;99.90;;;;;;5059878;28;20071;-70
2021/12/11 01:06:57;;;;;;;11.45;6.03;;;-4.10;99.90;;;;;;5059710;28;20029;-70
2021/12/11 01:09:46;;;;;;;13.32;5.68;;;-4.20;99.90;;;;;;5059610;28;20099;-70
2021/12/11 01:12:28;;;;;;;10.75;4.72;;;-4.20;99.90;;;;;;5060395;28;20017;-70
2021/12/11 01:15:24;;;;;;;10.23;5.18;;;-4.20;99.90;;;;;;5060241;28;20033;-70
2021/12/11 01:18:22;;;;;;;12.70;6.10;;;-4.20;99.90;;;;;;5060209;28;20066;-70
2021/12/11 01:21:11;;;;;;;12.18;6.03;;;-4.20;99.90;;;;;;5060273;28;20437;-70
2021/12/11 01:23:56;;;;;;;13.65;5.55;;;-4.20;99.90;;;;;;5060587;28;20134;-70
2021/12/11 01:26:24;;;;;;;11.70;5.82;;;-4.30;99.90;;;;;;5059946;28;20124;-70
2021/12/11 01:28:53;;;;;;;10.75;5.28;;;-4.30;99.90;;;;;;5060151;28;20040;-70
2021/12/11 01:31:23;;;;;;;15.77;6.05;;;-4.30;99.90;;;;;;5060083;28;20435;-70
2021/12/11 01:33:52;;;;;;;10.65;5.65;;;-4.30;99.90;;;;;;5060780;28;20033;-70
2021/12/11 01:36:20;;;;;;;20.92;6.53;;;-4.30;99.90;;;;;;5059810;28;20416;-70
2021/12/11 01:38:54;;;;;;;12.43;5.70;;;-4.30;99.90;;;;;;5059263;28;20021;-70
2021/12/11 01:41:22;;;;;;;11.30;4.90;;;-4.30;99.90;;;;;;5059046;28;20033;-70
2021/12/11 01:43:56;;;;;;;11.48;5.65;;;-4.40;99.90;;;;;;5059459;28;20075;-70
2021/12/11 01:46:25;;;;;;;15.13;5.82;;;-4.40;99.90;;;;;;5058966;28;20075;-70
2021/12/11 01:48:58;;;;;;;15.40;5.68;;;-4.40;99.90;;;;;;5058961;28;20022;-70
2021/12/11 01:51:51;;;;;;;11.80;5.40;;;-4.40;99.90;;;;;;5059186;28;20028;-70
2021/12/11 01:54:28;;;;;;;14.70;5.20;;;-4.30;99.90;;;;;;5058761;28;20099;-70
2021/12/11 01:57:09;;;;;;;12.52;5.22;;;-4.40;99.90;;;;;;5059340;28;20025;-70
2021/12/11 01:59:42;;;;;;;12.07;4.82;;;-4.40;99.90;;;;;;5059236;28;20028;-70
2021/12/11 02:02:28;;;;;;;15.73;4.85;;;-4.40;99.90;;;;;;5059605;28;20029;-72
2021/12/11 02:04:55;;;;;;;12.13;5.68;;;-4.40;99.90;;;;;;5058450;28;20025;-70
2021/12/11 02:07:43;;;;;;;18.70;5.38;;;-4.40;99.90;;;;;;5058112;28;20029;-70
2021/12/11 02:10:25;;;;;;;15.50;5.28;;;-4.40;99.90;;;;;;5060098;28;20448;-70
2021/12/11 02:12:54;;;;;;;12.10;5.50;;;-4.40;99.90;;;;;;5058320;28;20071;-70
2021/12/11 02:15:30;;;;;;;13.02;5.70;;;-4.50;99.90;;;;;;5058282;28;20021;-70
2021/12/11 02:18:19;;;;;;;14.20;5.80;;;-4.50;99.90;;;;;;5059259;28;20107;-70
2021/12/11 02:20:58;;;;;;;14.98;5.10;;;-4.50;99.90;;;;;;5058352;28;20028;-70
2021/12/11 02:23:26;;;;;;;14.55;5.55;;;-4.50;99.90;;;;;;5057067;28;20401;-70
2021/12/11 02:26:07;;;;;;;12.07;5.82;;;-4.50;99.90;;;;;;5056877;28;20044;-70
2021/12/11 02:28:42;;;;;;;13.93;6.53;;;-4.40;99.90;;;;;;5057287;28;20447;-70
2021/12/11 02:31:27;;;;;;;21.45;6.47;;;-4.40;99.90;;;;;;5057920;28;20130;-70
2021/12/11 02:34:09;;;;;;;17.73;6.05;;;-4.40;99.90;;;;;;5058058;28;20433;-70
2021/12/11 02:36:54;;;;;;;15.45;6.03;;;-4.40;99.90;;;;;;5057936;28;20033;-70
2021/12/11 02:39:37;;;;;;;11.93;5.70;;;-4.40;99.90;;;;;;5058092;28;20094;-70
2021/12/11 02:42:16;;;;;;;13.55;4.75;;;-4.40;99.90;;;;;;5058240;28;20049;-70
2021/12/11 02:45:01;;;;;;;9.15;4.80;;;-4.40;99.90;;;;;;5057673;28;20544;-70
2021/12/11 02:47:36;;;;;;;14.10;4.83;;;-4.40;99.90;;;;;;5059231;28;20400;-70
2021/12/11 02:50:22;;;;;;;12.52;5.47;;;-4.50;99.90;;;;;;5059335;28;20032;-70
2021/12/11 02:53:13;;;;;;;11.85;4.75;;;-4.50;99.90;;;;;;5058599;28;20028;-70
2021/12/11 02:55:45;;;;;;;12.57;5.15;;;-4.60;99.90;;;;;;5058580;28;20017;-70
2021/12/11 02:58:24;;;;;;;11.73;5.25;;;-4.60;99.90;;;;;;5059208;28;20025;-70
2021/12/11 03:01:02;;;;;;;11.50;5.28;;;-4.50;99.90;;;;;;5057369;28;20021;-69
2021/12/11 03:03:40;;;;;;;10.23;5.10;;;-4.50;99.90;;;;;;5057535;28;20496;-70
2021/12/11 03:06:17;;;;;;;10.93;4.30;;;-4.60;99.90;;;;;;5057376;28;20025;-70
2021/12/11 03:08:49;;;;;;;11.48;5.15;;;-4.60;99.90;;;;;;5057229;28;20025;-70
2021/12/11 03:11:19;;;;;;;13.07;4.43;;;-4.60;99.90;;;;;;5057326;28;20428;-70
2021/12/11 03:13:52;;;;;;;16.90;5.25;;;-4.60;99.90;;;;;;5057875;28;20021;-70
2021/12/11 03:16:29;;;;;;;9.40;4.93;;;-4.60;99.90;;;;;;5057763;28;20033;-70
2021/12/11 03:18:59;;;;;;;13.73;5.28;;;-4.60;99.90;;;;;;5057194;28;20070;-70
2021/12/11 03:21:28;;;;;;;10.48;4.85;;;-4.70;99.90;;;;;;5057313;28;20025;-70
2021/12/11 03:23:56;;;;;;;14.88;5.40;;;-4.70;99.90;;;;;;5057309;28;20045;-70
2021/12/11 03:26:25;;;;;;;11.18;4.28;;;-4.70;99.90;;;;;;5057706;28;20037;-70
2021/12/11 03:28:53;;;;;;;12.70;5.50;;;-4.70;99.90;;;;;;5058025;28;20032;-69
2021/12/11 03:31:20;;;;;;;11.40;4.47;;;-4.70;99.90;;;;;;5058413;28;20069;-70
2021/12/11 03:33:54;;;;;;;12.50;5.30;;;-4.70;99.90;;;;;;5058100;28;20146;-70
2021/12/11 03:36:24;;;;;;;10.57;4.63;;;-4.70;99.90;;;;;;5058349;28;20316;-69
2021/12/11 03:38:57;;;;;;;11.10;4.40;;;-4.70;99.90;;;;;;5056679;28;20029;-70
2021/12/11 03:41:26;;;;;;;12.57;5.03;;;-4.70;99.90;;;;;;5058495;28;20301;-69
2021/12/11 03:43:54;;;;;;;12.18;5.13;;;-4.70;99.90;;;;;;5057610;28;20329;-69
2021/12/11 03:46:23;;;;;;;9.10;4.30;;;-4.70;99.90;;;;;;5057105;28;20028;-70
2021/12/11 03:49:00;;;;;;;10.77;4.78;;;-4.60;99.90;;;;;;5056771;28;20020;-70
2021/12/11 03:51:39;;;;;;;10.05;4.60;;;-4.60;99.90;;;;;;5056658;28;20443;-70
2021/12/11 03:54:11;;;;;;;12.38;5.00;;;-4.50;99.90;;;;;;5057262;28;20467;-70
2021/12/11 03:56:39;;;;;;;10.82;4.15;;;-4.40;99.90;;;;;;5056627;28;20021;-70
2021/12/11 03:59:10;;;;;;;13.20;4.45;;;-4.40;99.90;;;;;;5056558;28;20032;-70
2021/12/11 04:01:55;;;;;;;9.60;4.68;;;-4.30;99.90;;;;;;5056579;28;20055;-70
2021/12/11 04:04:29;;;;;;;9.30;4.43;;;-4.20;99.90;;;;;;5057098;28;20043;-70
2021/12/11 04:06:58;;;;;;;12.32;4.57;;;-4.10;99.90;;;;;;5057223;28;20406;-70
2021/12/11 04:09:26;;;;;;;9.95;4.25;;;-4.00;99.90;;;;;;5057831;28;20021;-70
2021/12/11 04:11:55;;;;;;;11.00;4.35;;;-3.90;99.90;;;;;;5057586;28;20290;-70
2021/12/11 04:14:28;;;;;;;10.32;5.40;;;-3.90;99.90;;;;;;5057934;28;20025;-70
2021/12/11 04:16:57;;;;;;;8.57;4.30;;;-3.80;99.90;;;;;;5056075;28;20025;-70
2021/12/11 04:19:25;;;;;;;14.70;4.95;;;-3.70;99.90;;;;;;5057578;28;20104;-69
2021/12/11 04:21:53;;;;;;;9.27;4.32;;;-3.70;99.90;;;;;;5056198;28;20029;-70
2021/12/11 04:24:24;;;;;;;9.43;4.65;;;-3.70;99.90;;;;;;5055969;28;20028;-70
2021/12/11 04:26:53;;;;;;;13.15;4.65;;;-3.70;99.90;;;;;;5055740;28;20051;-70
2021/12/11 04:29:21;;;;;;;9.57;4.30;;;-3.60;99.90;;;;;;5056792;28;20022;-70
2021/12/11 04:31:49;;;;;;;12.38;5.18;;;-3.70;99.90;;;;;;5057758;28;20013;-70
2021/12/11 04:34:22;;;;;;;13.68;4.95;;;-3.60;99.90;;;;;;5059209;28;20032;-70
2021/12/11 04:37:15;;;;;;;13.43;4.32;;;-3.60;99.90;;;;;;5060033;28;20025;-70
2021/12/11 04:39:48;;;;;;;12.52;4.82;;;-3.60;99.90;;;;;;5060358;28;20448;-70
2021/12/11 04:42:46;;;;;;;9.88;4.25;;;-3.60;99.90;;;;;;5060159;28;20127;-70
2021/12/11 04:45:35;;;;;;;18.77;5.07;;;-3.60;99.90;;;;;;5060008;28;20032;-70
2021/12/11 04:48:14;;;;;;;11.75;4.72;;;-3.60;99.90;;;;;;5060230;28;20021;-70
2021/12/11 04:51:07;;;;;;;12.43;4.55;;;-3.60;99.90;;;;;;5060807;28;20021;-70
2021/12/11 04:56:50;;;;;;;10.23;4.38;;;-3.50;99.90;;;;;;5060753;28;20082;-70
2021/12/11 05:07:30;;;;;;;11.17;5.00;;;-3.30;99.90;;;;;;5060672;28;20079;-70
2021/12/11 05:10:17;;;;;;;12.70;5.35;;;-3.20;99.90;;;;;;5060918;28;20294;-70
2021/12/11 05:12:47;;;;;;;;;;;-3.20;99.90;;;;;;5060672;28;20021;-70
2021/12/11 05:15:21;;;;;;;13.32;5.00;;;-3.10;99.90;;;;;;5059929;28;19905;-70
2021/12/11 05:17:50;;;;;;;11.68;4.75;;;-3.10;99.90;;;;;;5060058;28;20025;-70
2021/12/11 05:20:22;;;;;;;9.65;4.28;;;-3.00;99.90;;;;;;5059682;28;20078;-70
2021/12/11 05:22:50;;;;;;;12.27;5.32;;;-3.00;99.90;;;;;;5059396;28;20056;-70
2021/12/11 05:25:17;;;;;;;10.90;5.30;;;-3.00;99.90;;;;;;5059095;28;20052;-70
2021/12/11 05:27:46;;;;;;;15.80;5.30;;;-2.90;99.90;;;;;;5059341;28;20017;-70
2021/12/11 05:30:28;;;;;;;10.45;5.03;;;-2.90;99.90;;;;;;5059447;28;20100;-70
2021/12/11 05:32:58;;;;;;;11.00;5.13;;;-2.80;99.90;;;;;;5058320;28;20079;-70
2021/12/11 05:35:28;;;;;;;12.25;5.13;;;-2.80;99.90;;;;;;5059689;28;20074;-70
2021/12/11 05:37:56;;;;;;;12.73;5.25;;;-2.70;99.90;;;;;;5060071;28;20028;-70
2021/12/11 05:40:25;;;;;;;13.13;4.97;;;-2.60;99.90;;;;;;5060686;28;20025;-70
2021/12/11 05:42:52;;;;;;;12.30;4.72;;;-2.60;99.90;;;;;;5059905;28;20029;-70
2021/12/11 05:45:20;;;;;;;12.68;4.85;;;-2.60;99.90;;;;;;5059931;28;20056;-70
2021/12/11 05:47:49;;;;;;;11.45;4.82;;;-2.50;99.90;;;;;;5059828;28;20032;-70
2021/12/11 05:50:28;;;;;;;12.75;5.30;;;-2.50;99.90;;;;;;5060031;28;20025;-70
2021/12/11 05:52:56;;;;;;;11.43;5.60;;;-2.40;99.90;;;;;;5059935;28;20021;-70
2021/12/11 05:55:25;;;;;;;12.93;6.07;;;-2.40;99.90;;;;;;5058800;28;20044;-70
2021/12/11 05:57:57;;;;;;;11.90;5.63;;;-2.30;99.90;;;;;;5059313;28;20480;-70
2021/12/11 06:00:34;;;;;;;11.93;5.55;;;-2.30;99.90;;;;;;5059379;28;20384;-70
2021/12/11 06:03:06;;;;;;;11.15;5.45;;;-2.20;99.90;;;;;;5059469;28;20028;-70
2021/12/11 06:05:33;;;;;;;13.20;5.55;;;-2.20;99.90;;;;;;5058523;28;20025;-70
2021/12/11 06:08:01;;;;;;;11.48;4.63;;;-2.20;99.90;;;;;;5059049;28;20025;-70
2021/12/11 06:10:30;;;;;;;17.52;5.95;;;-2.10;99.90;;;;;;5058276;28;20048;-70
2021/12/11 06:13:00;;;;;;;16.90;5.78;;;-2.10;99.90;;;;;;5059052;28;20045;-70
2021/12/11 06:15:28;;;;;;;13.15;5.60;;;-2.00;99.90;;;;;;5058707;28;20032;-70
2021/12/11 06:17:56;;;;;;;18.05;7.07;;;-2.00;99.90;;;;;;5059263;28;20429;-70
2021/12/11 06:20:27;;;;;;;13.68;5.70;;;-2.00;99.90;;;;;;5059993;28;20029;-70
2021/12/11 06:22:55;;;;;;;14.73;5.45;;;-1.90;99.90;;;;;;5059258;28;20021;-70
2021/12/11 06:25:27;;;;;;;15.35;5.90;;;-1.90;99.90;;;;;;5058873;28;20057;-71
2021/12/11 06:27:56;;;;;;;17.60;6.55;;;-1.90;99.90;;;;;;5059200;28;20025;-71
2021/12/11 06:30:23;;;;;;;11.05;6.82;;;-1.90;99.90;;;;;;5059098;28;20017;-70
2021/12/11 06:32:52;;;;;;;15.88;6.22;;;-1.90;99.90;;;;;;5058005;28;20048;-71
2021/12/11 06:35:24;;;;;;;13.65;6.68;;;-1.80;99.90;;;;;;5058132;28;20161;-71
2021/12/11 06:37:52;;;;;;;13.57;6.47;;;-1.80;99.90;;;;;;5058508;28;20428;-70
2021/12/11 06:40:21;;;;;;;11.73;5.60;;;-1.80;99.90;;;;;;5058038;28;20372;-70
2021/12/11 06:42:51;;;;;;;12.93;6.47;;;-1.80;99.90;;;;;;5058541;28;20017;-71
2021/12/11 06:45:20;;;;;;;25.58;11.25;;;-1.70;99.90;;;;;;5057855;28;20025;-70
2021/12/11 06:47:47;;;;;;;18.27;8.68;;;-1.70;99.90;;;;;;5058204;28;20021;-71
2021/12/11 06:50:16;;;;;;;20.08;9.80;;;-1.70;99.90;;;;;;5057731;28;20053;-68
2021/12/11 06:52:43;;;;;;;21.65;9.30;;;-1.70;99.90;;;;;;5057745;28;20017;-74
2021/12/11 06:55:11;;;;;;;22.85;10.75;;;-1.60;99.90;;;;;;5057028;28;20472;-70
2021/12/11 06:57:39;;;;;;;23.35;10.57;;;-1.60;99.90;;;;;;5073254;28;20033;-71
2021/12/11 07:00:07;;;;;;;28.65;10.55;;;-1.60;99.90;;;;;;5058726;28;20035;-76
2021/12/11 07:02:35;;;;;;;21.45;11.32;;;-1.60;99.90;;;;;;5058525;28;20026;-70
2021/12/11 07:05:04;;;;;;;25.85;10.90;;;-1.50;99.90;;;;;;5058597;28;20063;-68
2021/12/11 07:07:35;;;;;;;37.80;15.00;;;-1.50;99.90;;;;;;5058411;28;20017;-70
2021/12/11 07:10:09;;;;;;;54.65;20.40;;;-1.50;99.90;;;;;;5058215;28;20138;-73
2021/12/11 07:12:37;;;;;;;29.27;13.38;;;-1.40;99.90;;;;;;5073805;28;20478;-72
2021/12/11 07:15:07;;;;;;;27.48;13.43;;;-1.40;99.90;;;;;;5058394;28;20057;-72
2021/12/11 07:17:35;;;;;;;28.70;13.00;;;-1.30;99.90;;;;;;5058246;28;20047;-72
2021/12/11 07:20:05;;;;;;;26.83;14.15;;;-1.30;99.90;;;;;;5057952;28;20033;-72
2021/12/11 07:22:33;;;;;;;30.33;13.57;;;-1.30;99.90;;;;;;5057622;28;20420;-72
2021/12/11 07:25:11;;;;;;;30.23;14.30;;;-1.30;99.90;;;;;;5057319;28;20325;-72
2021/12/11 07:27:38;;;;;;;55.40;20.70;;;-1.30;99.90;;;;;;5057362;28;20162;-71
2021/12/11 07:30:06;;;;;;;44.00;20.88;;;-1.30;99.90;;;;;;5056936;28;20330;-72
2021/12/11 07:32:34;;;;;;;45.58;21.77;;;-1.30;99.90;;;;;;5057625;28;20029;-72
2021/12/11 07:35:01;;;;;;;47.00;19.15;;;-1.30;99.90;;;;;;5057165;28;20417;-71
2021/12/11 07:37:29;;;;;;;58.67;24.20;;;-1.30;99.90;;;;;;5057249;28;20029;-73
2021/12/11 07:39:57;;;;;;;66.18;25.23;;;-1.20;99.90;;;;;;5057469;28;20290;-72
2021/12/11 07:42:24;;;;;;;52.58;20.67;;;-1.20;99.90;;;;;;5057412;28;20029;-72
2021/12/11 07:44:52;;;;;;;42.97;17.88;;;-1.20;99.90;;;;;;5057860;28;20025;-72
2021/12/11 07:47:20;;;;;;;35.20;17.10;;;-1.20;99.90;;;;;;5057662;28;20029;-71
2021/12/11 07:49:48;;;;;;;36.22;15.73;;;-1.20;99.90;;;;;;5073241;28;20075;-69
2021/12/11 07:52:15;;;;;;;41.45;16.38;;;-1.10;99.90;;;;;;5057810;28;20104;-70
2021/12/11 07:54:43;;;;;;;39.50;17.38;;;-1.10;99.90;;;;;;5058249;28;20025;-69
2021/12/11 07:57:11;;;;;;;31.83;13.80;;;-1.00;99.90;;;;;;5057506;28;20029;-67
2021/12/11 07:59:38;;;;;;;29.85;13.82;;;-1.00;99.90;;;;;;5073141;28;20025;-69
2021/12/11 08:02:06;;;;;;;29.27;12.48;;;-1.00;99.90;;;;;;5057289;28;20107;-69
2021/12/11 08:04:34;;;;;;;27.33;11.45;;;-0.90;99.90;;;;;;5056891;28;20025;-69
2021/12/11 08:07:02;;;;;;;29.55;10.13;;;-0.90;99.90;;;;;;5056235;28;20013;-69
2021/12/11 08:09:29;;;;;;;23.88;11.60;;;-0.90;99.90;;;;;;5057035;28;20077;-69
2021/12/11 08:11:56;;;;;;;28.42;11.27;;;-0.90;99.90;;;;;;5057014;28;20290;-69
2021/12/11 08:14:24;;;;;;;20.98;11.85;;;-0.80;99.90;;;;;;5057109;28;20028;-69
2021/12/11 08:16:57;;;;;;;23.60;10.48;;;-0.80;99.90;;;;;;5072013;28;20029;-68
2021/12/11 08:19:28;;;;;;;19.73;9.75;;;-0.80;99.90;;;;;;5056412;28;20424;-69
2021/12/11 08:21:59;;;;;;;21.17;10.23;;;-0.70;99.90;;;;;;5056292;28;20021;-68
2021/12/11 08:24:28;;;;;;;20.73;9.90;;;-0.70;99.90;;;;;;5056275;28;20056;-67
2021/12/11 08:27:00;;;;;;;24.23;11.52;;;-0.60;99.90;;;;;;5056768;28;20118;-67
2021/12/11 08:29:28;;;;;;;34.08;15.35;;;-0.60;99.90;;;;;;5057271;28;20298;-69
2021/12/11 08:31:58;;;;;;;21.63;11.48;;;-0.60;99.90;;;;;;5072826;28;20024;-69
2021/12/11 08:34:26;;;;;;;23.85;11.13;;;-0.70;99.90;;;;;;5057304;28;20063;-68
2021/12/11 08:36:53;;;;;;;21.02;11.10;;;-0.70;99.90;;;;;;5057410;28;20036;-70
2021/12/11 08:39:22;;;;;;;31.13;14.27;;;-0.70;99.90;;;;;;5057518;28;20028;-67
2021/12/11 08:41:53;;;;;;;28.42;16.00;;;-0.80;99.90;;;;;;5057513;28;20029;-67
2021/12/11 08:44:21;;;;;;;28.25;14.07;;;-0.80;99.90;;;;;;5057077;28;20017;-67
2021/12/11 08:46:55;;;;;;;22.35;11.70;;;-0.80;99.90;;;;;;5056533;28;20409;-67
2021/12/11 08:49:27;;;;;;;34.25;12.02;;;-0.80;99.90;;;;;;5056072;28;20017;-68
2021/12/11 08:52:13;;;;;;;25.48;11.35;;;-0.80;99.90;;;;;;5054940;28;20112;-67
2021/12/11 08:54:42;;;;;;;20.55;10.82;;;-0.80;99.90;;;;;;5056173;28;20029;-68
2021/12/11 08:57:14;;;;;;;21.38;10.00;;;-0.80;99.90;;;;;;5056009;28;20048;-67
2021/12/11 08:59:48;;;;;;;19.05;9.73;;;-0.80;99.90;;;;;;5056029;28;20029;-69
2021/12/11 09:02:44;;;;;;;20.58;10.02;;;-0.90;99.90;;;;;;5056199;28;20021;-68
2021/12/11 09:05:26;;;;;;;21.70;10.68;;;-0.90;99.90;;;;;;5056145;28;20029;-68
2021/12/11 09:08:03;;;;;;;20.38;10.15;;;-0.90;99.90;;;;;;5055966;28;20036;-68
2021/12/11 09:10:40;;;;;;;19.52;9.25;;;-1.00;99.90;;;;;;5055693;28;20111;-68
2021/12/11 09:13:20;;;;;;;20.10;10.40;;;-1.00;99.90;;;;;;5057395;28;20105;-67
2021/12/11 09:15:57;;;;;;;21.65;10.75;;;-1.00;99.90;;;;;;5056741;28;20027;-67
2021/12/11 09:18:35;;;;;;;18.02;10.00;;;-1.00;99.90;;;;;;5059267;28;20086;-67
2021/12/11 09:21:21;;;;;;;19.80;10.50;;;-1.00;99.90;;;;;;5060412;28;20025;-69
2021/12/11 09:24:03;;;;;;;24.55;10.00;;;-1.00;99.90;;;;;;5060446;28;20078;-67
2021/12/11 09:26:58;;;;;;;23.38;10.55;;;-1.00;99.90;;;;;;5060199;28;20049;-68
2021/12/11 09:29:33;;;;;;;25.38;11.55;;;-1.00;99.90;;;;;;5060046;28;20095;-69
2021/12/11 09:32:08;;;;;;;26.85;11.63;;;-1.00;99.90;;;;;;5059754;28;20049;-69
2021/12/11 09:34:43;;;;;;;20.42;11.48;;;-1.00;99.90;;;;;;5059370;28;20033;-69
2021/12/11 09:37:11;;;;;;;29.60;13.27;;;-0.90;99.90;;;;;;5059103;28;20083;-69
2021/12/11 09:39:49;;;;;;;22.92;11.23;;;-0.90;99.90;;;;;;5059750;28;20025;-69
2021/12/11 09:42:16;;;;;;;20.83;10.57;;;-0.80;99.90;;;;;;5074664;28;20048;-70
2021/12/11 09:44:54;;;;;;;24.80;10.68;;;-0.70;99.90;;;;;;5059734;28;20161;-68
2021/12/11 09:47:40;;;;;;;24.25;12.27;;;-0.70;99.90;;;;;;5074557;28;20048;-68
2021/12/11 09:50:17;;;;;;;20.00;10.93;;;-0.60;99.90;;;;;;5059486;28;20094;-68
2021/12/11 09:52:46;;;;;;;38.35;19.30;;;-0.60;99.90;;;;;;5059631;28;20473;-67
2021/12/11 09:55:28;;;;;;;32.95;18.52;;;-0.50;99.90;;;;;;5059799;28;20171;-68
2021/12/11 09:58:00;;;;;;;23.42;12.38;;;-0.40;99.90;;;;;;5059657;28;20424;-68
2021/12/11 10:00:27;;;;;;;24.75;11.93;;;-0.40;99.90;;;;;;5059898;28;20033;-68
2021/12/11 10:02:55;;;;;;;21.35;11.38;;;-0.30;99.90;;;;;;5060180;28;20025;-67
2021/12/11 10:05:35;;;;;;;26.08;12.25;;;-0.30;99.90;;;;;;5075126;28;20325;-68
2021/12/11 10:08:33;;;;;;;23.80;11.77;;;-0.30;99.90;;;;;;5059797;28;20013;-68
2021/12/11 10:11:14;;;;;;;26.42;11.55;;;-0.20;99.90;;;;;;5074700;28;20028;-67
2021/12/11 10:13:55;;;;;;;33.67;12.77;;;-0.20;99.90;;;;;;5058806;28;20042;-66
2021/12/11 10:16:38;;;;;;;27.02;12.23;;;-0.10;99.90;;;;;;5059050;28;20048;-67
2021/12/11 10:19:07;;;;;;;34.50;14.60;;;-0.10;99.90;;;;;;5058686;28;20043;-67
2021/12/11 10:21:45;;;;;;;31.27;15.00;;;-0.10;99.90;;;;;;5058373;28;20017;-67
2021/12/11 10:24:27;;;;;;;34.85;13.30;;;0.00;99.90;;;;;;5058934;28;20413;-67
2021/12/11 10:26:57;;;;;;;26.27;13.15;;;0.00;99.90;;;;;;5058173;28;20094;-67
2021/12/11 10:29:24;;;;;;;28.55;13.75;;;0.00;99.90;;;;;;5058222;28;20089;-67
2021/12/11 10:32:00;;;;;;;24.38;12.30;;;0.00;99.90;;;;;;5058770;28;20024;-66
2021/12/11 10:34:30;;;;;;;29.77;14.23;;;0.10;99.90;;;;;;5059491;28;20021;-67
2021/12/11 10:37:15;;;;;;;27.00;13.98;;;0.10;99.90;;;;;;5059064;28;20078;-67
2021/12/11 10:39:51;;;;;;;26.65;13.43;;;0.20;99.90;;;;;;5059539;28;20021;-66
2021/12/11 10:42:19;;;;;;;28.92;12.95;;;0.30;99.90;;;;;;5058981;28;20025;-66
2021/12/11 10:44:52;;;;;;;30.65;15.25;;;0.40;99.90;;;;;;5074559;28;20052;-67
2021/12/11 10:47:28;;;;;;;28.13;14.90;;;0.40;99.90;;;;;;5059128;28;20352;-66
2021/12/11 10:49:57;;;;;;;30.50;15.68;;;0.50;99.90;;;;;;5058833;28;20052;-67
2021/12/11 10:52:30;;;;;;;29.00;14.93;;;0.70;99.90;;;;;;5058573;28;20024;-67
2021/12/11 10:55:03;;;;;;;39.22;18.13;;;0.70;99.90;;;;;;5058097;28;20074;-68
2021/12/11 10:57:32;;;;;;;34.53;19.42;;;0.70;99.90;;;;;;5058260;28;20021;-67
2021/12/11 11:00:00;;;;;;;38.10;21.40;;;0.80;99.90;;;;;;5058011;28;20398;-67
2021/12/11 11:02:30;;;;;;;34.78;18.50;;;0.80;99.90;;;;;;5058188;28;20025;-67
2021/12/11 11:05:09;;;;;;;31.55;16.48;;;0.80;99.90;;;;;;5058199;28;20021;-68
2021/12/11 11:07:39;;;;;;;28.50;14.23;;;0.80;99.90;;;;;;5057596;28;20025;-68
2021/12/11 11:10:14;;;;;;;27.40;14.18;;;0.90;99.90;;;;;;5057825;28;20083;-67
2021/12/11 11:12:43;;;;;;;28.27;13.98;;;0.90;99.90;;;;;;5057481;28;20017;-67
2021/12/11 11:15:14;;;;;;;27.85;14.55;;;0.90;99.90;;;;;;5057449;28;20486;-68
2021/12/11 11:17:41;;;;;;;28.27;14.68;;;0.90;99.90;;;;;;5057924;28;20328;-67
2021/12/11 11:20:12;;;;;;;28.02;13.68;;;1.00;99.90;;;;;;5073852;28;20029;-67
2021/12/11 11:22:45;;;;;;;31.40;15.48;;;1.00;99.90;;;;;;5058622;28;20025;-67
2021/12/11 11:25:20;;;;;;;23.98;11.88;;;1.10;99.90;;;;;;5058024;28;20412;-68
2021/12/11 11:27:57;;;;;;;27.10;13.57;;;1.10;99.90;;;;;;5058262;28;20041;-68
2021/12/11 11:30:34;;;;;;;29.45;14.05;;;1.20;99.90;;;;;;5058757;28;20025;-68
2021/12/11 11:33:05;;;;;;;29.95;15.57;;;1.20;99.90;;;;;;5073447;28;20023;-68
2021/12/11 11:35:34;;;;;;;33.17;15.27;;;1.20;99.90;;;;;;5057933;28;20116;-67
2021/12/11 11:38:06;;;;;;;25.38;14.65;;;1.20;99.90;;;;;;5057052;28;20027;-68
2021/12/11 11:40:37;;;;;;;35.40;17.23;;;1.20;99.90;;;;;;5057058;28;20032;-68
2021/12/11 11:43:06;;;;;;;28.92;15.02;;;1.30;99.90;;;;;;5055817;28;20050;-68
2021/12/11 11:45:35;;;;;;;30.45;15.63;;;1.20;99.90;;;;;;5057013;28;20037;-68
2021/12/11 11:48:03;;;;;;;35.63;17.73;;;1.30;99.90;;;;;;5057378;28;20076;-68
2021/12/11 11:50:41;;;;;;;37.85;17.38;;;1.30;99.90;;;;;;5056720;28;20029;-68
2021/12/11 11:53:10;;;;;;;42.03;16.92;;;1.40;99.90;;;;;;5057207;28;20028;-68
2021/12/11 11:55:45;;;;;;;42.13;18.40;;;1.40;99.90;;;;;;5072265;28;20024;-68
2021/12/11 11:58:12;;;;;;;42.88;18.77;;;1.40;99.90;;;;;;5056835;28;20021;-68
2021/12/11 12:00:53;;;;;;;38.58;18.20;;;1.40;99.90;;;;;;5057353;28;20040;-68
2021/12/11 12:03:26;;;;;;;25.08;13.18;;;1.50;99.90;;;;;;5058057;28;20067;-68
2021/12/11 12:05:59;;;;;;;39.83;16.00;;;1.50;99.90;;;;;;5057581;28;20032;-71
2021/12/11 12:08:28;;;;;;;41.75;18.27;;;1.50;99.90;;;;;;5057771;28;20025;-69
2021/12/11 12:10:57;;;;;;;43.53;19.00;;;1.50;99.90;;;;;;5057919;28;20029;-67
2021/12/11 12:13:27;;;;;;;39.25;18.00;;;1.50;99.90;;;;;;5057869;28;20025;-68
2021/12/11 12:16:02;;;;;;;47.88;21.83;;;1.50;99.90;;;;;;5056087;28;20125;-68
2021/12/11 12:18:30;;;;;;;43.00;19.67;;;1.50;99.90;;;;;;5073153;28;20032;-69
2021/12/11 12:20:59;;;;;;;57.10;21.73;;;1.50;99.90;;;;;;5056806;28;20108;-69
2021/12/11 12:23:32;;;;;;;46.28;20.83;;;1.50;99.90;;;;;;5056839;28;20364;-68
2021/12/11 12:26:06;;;;;;;56.58;21.60;;;1.60;99.90;;;;;;5055993;28;20073;-69
2021/12/11 12:28:36;;;;;;;50.63;21.55;;;1.50;99.90;;;;;;5055200;28;20421;-68
2021/12/11 12:31:19;;;;;;;52.72;21.92;;;1.50;99.90;;;;;;5056299;28;20017;-69
2021/12/11 12:33:46;;;;;;;50.22;21.25;;;1.50;99.90;;;;;;5057064;28;20017;-69
2021/12/11 12:36:15;;;;;;;47.42;20.90;;;1.50;99.90;;;;;;5071857;28;20021;-69
2021/12/11 12:38:44;;;;;;;46.08;18.52;;;1.50;99.90;;;;;;5056334;28;20026;-68
2021/12/11 12:41:19;;;;;;;49.65;18.60;;;1.50;99.90;;;;;;5071815;28;20052;-68
2021/12/11 12:44:16;;;;;;;40.80;17.38;;;1.50;99.90;;;;;;5057666;28;20023;-69
2021/12/11 12:46:50;;;;;;;38.33;16.98;;;1.50;99.90;;;;;;5056908;28;20032;-68
2021/12/11 12:49:19;;;;;;;44.05;17.40;;;1.50;99.90;;;;;;5057364;28;20017;-68
2021/12/11 12:51:48;;;;;;;44.58;18.00;;;1.60;99.90;;;;;;5072628;28;20332;-67
2021/12/11 12:54:19;;;;;;;55.58;20.88;;;1.60;99.90;;;;;;5061014;28;20029;-68
2021/12/11 12:57:00;;;;;;;64.90;24.25;;;1.60;99.90;;;;;;5059897;28;20044;-68
2021/12/11 12:59:36;;;;;;;46.53;19.17;;;1.60;99.90;;;;;;5061490;28;20025;-68
2021/12/11 13:02:08;;;;;;;51.55;19.08;;;1.60;99.90;;;;;;5061416;28;20355;-67
2021/12/11 13:04:44;;;;;;;46.72;19.38;;;1.60;99.90;;;;;;5060500;28;20025;-73
2021/12/11 13:07:14;;;;;;;50.05;21.15;;;1.70;99.90;;;;;;5058674;28;20049;-68
2021/12/11 13:09:52;;;;;;;48.30;21.02;;;1.60;99.90;;;;;;5060338;28;20028;-68
2021/12/11 13:12:47;;;;;;;49.85;21.45;;;1.60;99.90;;;;;;5059703;28;20024;-68
2021/12/11 13:15:30;;;;;;;46.90;18.73;;;1.70;99.90;;;;;;5056134;28;20056;-68
2021/12/11 13:17:59;;;;;;;50.25;20.05;;;1.70;99.90;;;;;;5059649;28;20025;-68
2021/12/11 13:20:41;;;;;;;47.78;19.60;;;1.70;99.90;;;;;;5075283;28;20322;-68